Terminal Aerodrome Forecast
Issued by NWS Corpus Christi, TX

Home | Current Version | Previous Version | Text Only | Print | Product List | Glossary On
Versions: 1 2 3 4 5 6 7 8 9 10 11 12 13 14
000
FTUS44 KCRP 260500
TAFCRP
TAF
KCRP 260526Z 2606/2706 16010KT P6SM FEW012 SCT250
     FM261500 17015G20KT P6SM SCT025
     FM261900 15020G27KT P6SM FEW040 SCT250
     FM270300 15012KT P6SM FEW018 SCT250=

USA.gov is the U.S. government's official web portal to all federal, state and local government web resources and services.